createdAt,value
2023-04-16T00:00:43.770Z,7.48
2023-04-16T00:03:46.983Z,7.40
2023-04-16T00:06:49.692Z,7.24
2023-04-16T00:09:52.238Z,7.23
2023-04-16T00:12:54.745Z,7.10
2023-04-16T00:15:57.277Z,7.08
2023-04-16T00:18:59.704Z,6.93
2023-04-16T00:22:02.257Z,6.83
2023-04-16T00:25:05.165Z,6.76
2023-04-16T00:28:09.025Z,6.76
2023-04-16T00:31:12.423Z,6.73
2023-04-16T00:34:15.322Z,6.69
2023-04-16T00:37:17.795Z,6.62
2023-04-16T00:40:20.357Z,6.54
2023-04-16T00:43:24.850Z,6.56
2023-04-16T00:46:27.760Z,6.47
2023-04-16T00:49:31.602Z,6.46
2023-04-16T00:52:35.746Z,6.47
2023-04-16T00:55:39.687Z,6.46
2023-04-16T00:58:42.279Z,6.46
2023-04-16T01:01:44.890Z,6.32
2023-04-16T01:04:47.594Z,6.23
2023-04-16T01:07:51.270Z,6.17
2023-04-16T01:10:53.681Z,6.18
2023-04-16T01:13:56.253Z,6.23
2023-04-16T01:16:58.662Z,6.16
2023-04-16T01:20:01.300Z,6.09
2023-04-16T01:23:04.010Z,6.20
2023-04-16T01:26:06.481Z,6.17
2023-04-16T01:29:09.179Z,6.08
2023-04-16T01:32:11.950Z,6.14
2023-04-16T01:35:18.368Z,6.06
2023-04-16T01:38:21.035Z,6.15
2023-04-16T01:41:23.487Z,6.09
2023-04-16T01:44:26.478Z,6.12
2023-04-16T01:47:29.326Z,6.10
2023-04-16T01:50:32.929Z,6.12
2023-04-16T01:53:37.113Z,6.15
2023-04-16T01:56:40.017Z,6.14
2023-04-16T01:59:42.467Z,6.13
2023-04-16T02:02:45.548Z,6.05
2023-04-16T02:05:52.352Z,6.09
2023-04-16T02:08:54.805Z,6.01
2023-04-16T02:11:57.490Z,5.88
2023-04-16T02:15:00.162Z,5.91
2023-04-16T02:18:04.811Z,5.91
2023-04-16T02:21:08.066Z,5.87
2023-04-16T02:24:10.659Z,5.82
2023-04-16T02:27:13.092Z,5.80
2023-04-16T02:30:16.616Z,5.82
2023-04-16T02:33:20.284Z,5.80
2023-04-16T02:36:32.238Z,5.90
2023-04-16T02:39:35.463Z,5.86
2023-04-16T02:42:37.883Z,5.79
2023-04-16T02:45:41.332Z,5.84
2023-04-16T02:48:43.998Z,5.86
2023-04-16T02:51:46.976Z,5.78
2023-04-16T02:54:49.537Z,5.64
2023-04-16T02:57:52.976Z,5.70
2023-04-16T03:00:55.796Z,5.64
2023-04-16T03:03:58.425Z,5.60
2023-04-16T03:07:01.033Z,5.57
2023-04-16T03:10:03.749Z,5.62
2023-04-16T03:13:06.515Z,5.63
2023-04-16T03:16:09.107Z,5.54
2023-04-16T03:19:12.138Z,5.49
2023-04-16T03:22:15.062Z,5.42
2023-04-16T03:25:18.057Z,5.39
2023-04-16T03:28:21.789Z,5.45
2023-04-16T03:31:26.068Z,5.34
2023-04-16T03:34:29.634Z,5.37
2023-04-16T03:37:32.302Z,5.38
2023-04-16T03:40:34.804Z,5.21
2023-04-16T03:43:37.538Z,5.32
2023-04-16T03:46:40.657Z,5.37
2023-04-16T03:49:43.162Z,5.31
2023-04-16T03:52:47.008Z,5.38
2023-04-16T03:55:51.589Z,5.40
2023-04-16T03:58:54.912Z,5.40
2023-04-16T04:01:58.288Z,5.44
2023-04-16T04:05:02.462Z,5.53
2023-04-16T04:08:05.575Z,5.59
2023-04-16T04:11:08.796Z,5.76
2023-04-16T04:14:11.960Z,5.74
2023-04-16T04:17:14.613Z,5.84
2023-04-16T04:20:17.330Z,5.92
2023-04-16T04:23:22.145Z,6.00
2023-04-16T04:26:25.746Z,6.10
2023-04-16T04:29:28.480Z,6.15
2023-04-16T04:32:31.402Z,6.11
2023-04-16T04:35:34.035Z,6.14
2023-04-16T04:38:37.057Z,6.18
2023-04-16T04:41:40.508Z,6.19
2023-04-16T04:44:43.092Z,6.23
2023-04-16T04:47:46.019Z,6.48
2023-04-16T04:50:48.467Z,6.43
2023-04-16T04:53:50.836Z,6.48
2023-04-16T04:56:53.491Z,6.59
2023-04-16T04:59:56.440Z,6.57
2023-04-16T05:03:03.029Z,6.57
2023-04-16T05:06:05.647Z,6.63
2023-04-16T05:09:11.889Z,6.60
2023-04-16T05:12:14.440Z,6.65
2023-04-16T05:15:17.240Z,6.73
2023-04-16T05:18:20.506Z,6.71
2023-04-16T05:21:23.003Z,6.75
2023-04-16T05:24:25.753Z,6.85
2023-04-16T05:27:28.218Z,6.85
2023-04-16T05:30:30.838Z,6.92
2023-04-16T05:33:33.316Z,7.02
2023-04-16T05:36:35.782Z,7.11
2023-04-16T05:39:38.546Z,7.26
2023-04-16T05:42:41.373Z,7.31
2023-04-16T05:45:43.914Z,7.36
2023-04-16T05:48:47.328Z,7.43
2023-04-16T05:51:50.860Z,7.40
2023-04-16T05:54:53.516Z,7.49
2023-04-16T05:57:56.063Z,7.75
2023-04-16T06:00:58.717Z,7.73
2023-04-16T06:04:01.847Z,8.03
2023-04-16T06:07:04.587Z,8.09
2023-04-16T06:10:07.569Z,8.20
2023-04-16T06:13:10.057Z,8.24
2023-04-16T06:16:12.596Z,8.33
2023-04-16T06:19:15.296Z,8.38
2023-04-16T06:22:17.923Z,8.43
2023-04-16T06:25:20.433Z,8.40
2023-04-16T06:28:23.005Z,8.59
2023-04-16T06:31:25.644Z,8.54
2023-04-16T06:34:28.491Z,8.69
2023-04-16T06:37:31.249Z,8.69
2023-04-16T06:40:33.764Z,8.83
2023-04-16T06:43:36.570Z,8.96
2023-04-16T06:46:39.530Z,9.15
2023-04-16T06:49:42.405Z,9.16
2023-04-16T06:52:45.119Z,9.29
2023-04-16T06:55:47.683Z,9.63
2023-04-16T06:58:50.558Z,9.93
2023-04-16T07:01:53.128Z,10.06
2023-04-16T07:04:55.952Z,10.16
2023-04-16T07:07:59.279Z,10.48
2023-04-16T07:11:01.883Z,10.66
2023-04-16T07:14:04.300Z,10.73
2023-04-16T07:17:06.777Z,10.83
2023-04-16T07:20:09.589Z,10.73
2023-04-16T07:23:12.099Z,10.87
2023-04-16T07:26:14.581Z,10.87
2023-04-16T07:29:17.396Z,10.85
2023-04-16T07:32:22.523Z,10.81
2023-04-16T07:35:25.476Z,10.72
2023-04-16T07:38:28.122Z,10.86
2023-04-16T07:41:31.052Z,10.87
2023-04-16T07:44:33.701Z,11.00
2023-04-16T07:47:36.655Z,11.31
2023-04-16T07:50:39.280Z,11.55
2023-04-16T07:53:43.432Z,11.85
2023-04-16T07:56:46.140Z,12.07
2023-04-16T07:59:49.122Z,12.56
2023-04-16T08:02:51.615Z,12.88
2023-04-16T08:05:54.271Z,12.99
2023-04-16T08:08:57.009Z,13.44
2023-04-16T08:12:00.937Z,13.51
2023-04-16T08:15:03.751Z,13.56
2023-04-16T08:18:07.464Z,13.60
2023-04-16T08:21:10.002Z,13.51
2023-04-16T08:24:12.741Z,13.51
2023-04-16T08:27:19.964Z,13.72
2023-04-16T08:30:23.049Z,13.82
2023-04-16T08:33:25.525Z,13.87
2023-04-16T08:36:27.991Z,13.92
2023-04-16T08:39:30.555Z,14.29
2023-04-16T08:42:45.005Z,14.35
2023-04-16T08:45:47.695Z,14.53
2023-04-16T08:48:54.404Z,14.68
2023-04-16T08:51:57.525Z,14.88
2023-04-16T08:55:16.925Z,14.96
2023-04-16T08:58:22.208Z,14.83
2023-04-16T09:01:26.879Z,15.18
2023-04-16T09:04:30.002Z,15.43
2023-04-16T09:07:34.227Z,15.90
2023-04-16T09:10:36.781Z,15.92
2023-04-16T09:13:39.600Z,16.30
2023-04-16T09:16:42.417Z,16.79
2023-04-16T09:19:47.189Z,16.84
2023-04-16T09:22:49.815Z,16.74
2023-04-16T09:25:52.221Z,16.75
2023-04-16T09:28:55.540Z,16.80
2023-04-16T09:32:09.084Z,16.61
2023-04-16T09:35:11.665Z,16.58
2023-04-16T09:38:14.236Z,16.20
2023-04-16T09:41:16.888Z,16.13
2023-04-16T09:44:19.345Z,16.32
2023-04-16T09:47:22.916Z,16.42
2023-04-16T09:50:26.495Z,16.35
2023-04-16T09:53:31.054Z,16.44
2023-04-16T09:56:34.114Z,16.43
2023-04-16T09:59:37.141Z,16.46
2023-04-16T10:02:42.213Z,16.33
2023-04-16T10:05:45.403Z,16.48
2023-04-16T10:08:53.356Z,16.50
2023-04-16T10:11:55.967Z,16.36
2023-04-16T10:14:58.479Z,16.65
2023-04-16T10:18:01.388Z,16.37
2023-04-16T10:21:05.662Z,16.47
2023-04-16T10:24:08.904Z,16.86
2023-04-16T10:27:11.548Z,17.01
2023-04-16T10:30:15.633Z,17.28
2023-04-16T10:33:30.285Z,17.15
2023-04-16T10:36:36.727Z,17.09
2023-04-16T10:39:39.649Z,16.98
2023-04-16T10:42:42.182Z,16.81
2023-04-16T10:45:44.675Z,16.97
2023-04-16T10:48:50.214Z,17.00
2023-04-16T10:52:12.285Z,17.34
2023-04-16T10:55:17.752Z,17.77
2023-04-16T10:58:35.876Z,18.02
2023-04-16T11:01:44.417Z,18.20
2023-04-16T11:04:48.587Z,18.42
2023-04-16T11:07:51.170Z,19.27
2023-04-16T11:10:54.330Z,19.59
2023-04-16T11:13:57.147Z,20.09
2023-04-16T11:17:03.764Z,20.36
2023-04-16T11:20:20.144Z,20.78
2023-04-16T11:23:23.775Z,21.40
2023-04-16T11:26:28.857Z,21.38
2023-04-16T11:29:31.393Z,21.31
2023-04-16T11:32:35.627Z,21.10
2023-04-16T11:35:39.653Z,20.56
2023-04-16T11:38:43.070Z,21.10
2023-04-16T11:41:52.342Z,23.27
2023-04-16T11:44:56.216Z,23.61
2023-04-16T11:47:58.901Z,24.26
2023-04-16T11:51:01.791Z,23.77
2023-04-16T11:54:04.634Z,21.92
2023-04-16T11:57:07.260Z,21.53
2023-04-16T12:00:15.970Z,21.57
2023-04-16T12:03:18.651Z,21.56
2023-04-16T12:06:22.722Z,21.78
2023-04-16T12:09:30.152Z,21.81
2023-04-16T12:12:32.914Z,22.09
2023-04-16T12:15:55.355Z,22.37
2023-04-16T12:19:03.885Z,22.19
2023-04-16T12:22:06.659Z,21.41
2023-04-16T12:25:13.139Z,20.89
2023-04-16T12:28:16.551Z,20.84
2023-04-16T12:31:37.464Z,20.51
2023-04-16T12:34:51.431Z,19.99
2023-04-16T12:37:53.843Z,19.60
2023-04-16T12:40:57.648Z,19.74
2023-04-16T12:44:11.984Z,19.84
2023-04-16T12:47:14.992Z,19.87
2023-04-16T12:50:17.874Z,20.09
2023-04-16T12:53:20.523Z,19.93
2023-04-16T12:56:23.220Z,19.65
2023-04-16T12:59:26.850Z,19.49
2023-04-16T13:02:29.597Z,19.52
2023-04-16T13:05:32.417Z,19.56
2023-04-16T13:08:35.031Z,19.98
2023-04-16T13:11:37.773Z,20.07
2023-04-16T13:14:40.296Z,20.45
2023-04-16T13:17:42.823Z,20.67
2023-04-16T13:20:45.553Z,21.21
2023-04-16T13:23:48.000Z,22.91
2023-04-16T13:26:52.060Z,23.46
2023-04-16T13:29:54.613Z,25.19
2023-04-16T13:32:57.253Z,25.93
2023-04-16T13:36:00.171Z,25.65
2023-04-16T13:39:05.267Z,24.54
2023-04-16T13:42:08.124Z,23.42
2023-04-16T13:45:11.374Z,23.80
2023-04-16T13:48:14.234Z,24.84
2023-04-16T13:51:17.029Z,25.47
2023-04-16T13:54:20.058Z,27.23
2023-04-16T13:57:22.768Z,25.16
2023-04-16T14:00:27.690Z,24.16
2023-04-16T14:03:30.543Z,23.05
2023-04-16T14:06:34.620Z,22.26
2023-04-16T14:09:37.392Z,21.85
2023-04-16T14:12:40.681Z,22.40
2023-04-16T14:15:43.498Z,22.42
2023-04-16T14:18:46.404Z,22.73
2023-04-16T14:21:49.310Z,22.73
2023-04-16T14:24:52.010Z,23.25
2023-04-16T14:27:54.526Z,23.49
2023-04-16T14:30:57.333Z,22.66
2023-04-16T14:33:59.950Z,22.52
2023-04-16T14:37:02.478Z,23.80
2023-04-16T14:40:08.999Z,25.27
2023-04-16T14:43:11.959Z,26.75
2023-04-16T14:46:17.660Z,28.90
2023-04-16T14:49:20.798Z,30.06
2023-04-16T14:52:24.209Z,27.01
2023-04-16T14:55:27.216Z,26.16
2023-04-16T14:58:29.720Z,24.33
2023-04-16T15:01:33.712Z,23.23
2023-04-16T15:04:36.645Z,22.26
2023-04-16T15:07:39.419Z,21.89
2023-04-16T15:10:43.383Z,21.70
2023-04-16T15:13:48.930Z,21.56
2023-04-16T15:16:51.701Z,21.21
2023-04-16T15:19:54.371Z,21.51
2023-04-16T15:22:56.985Z,21.30
2023-04-16T15:25:59.492Z,20.74
2023-04-16T15:29:02.139Z,21.09
2023-04-16T15:32:04.808Z,20.93
2023-04-16T15:35:09.181Z,20.62
2023-04-16T15:38:13.062Z,20.51
2023-04-16T15:41:15.921Z,20.72
2023-04-16T15:44:18.691Z,20.80
2023-04-16T15:47:21.522Z,20.72
2023-04-16T15:50:25.527Z,20.29
2023-04-16T15:53:28.265Z,20.26
2023-04-16T15:56:31.596Z,20.02
2023-04-16T15:59:34.291Z,19.88
2023-04-16T16:02:38.196Z,19.98
2023-04-16T16:05:41.082Z,20.22
2023-04-16T16:08:44.187Z,20.15
2023-04-16T16:11:47.322Z,19.64
2023-04-16T16:14:50.017Z,19.38
2023-04-16T16:17:53.539Z,19.07
2023-04-16T16:20:57.751Z,18.71
2023-04-16T16:24:00.344Z,18.74
2023-04-16T16:27:03.089Z,18.40
2023-04-16T16:30:07.385Z,18.22
2023-04-16T16:33:10.507Z,18.24
2023-04-16T16:36:13.170Z,18.11
2023-04-16T16:39:16.053Z,17.96
2023-04-16T16:42:18.969Z,17.94
2023-04-16T16:45:21.807Z,18.03
2023-04-16T16:48:24.818Z,18.03
2023-04-16T16:51:27.770Z,17.94
2023-04-16T16:54:31.063Z,17.79
2023-04-16T16:57:34.953Z,17.74
2023-04-16T17:00:38.008Z,17.71
2023-04-16T17:03:41.247Z,17.38
2023-04-16T17:06:43.821Z,17.43
2023-04-16T17:09:46.762Z,17.23
2023-04-16T17:12:51.114Z,17.07
2023-04-16T17:15:53.848Z,17.01
2023-04-16T17:18:57.314Z,16.80
2023-04-16T17:22:00.353Z,16.69
2023-04-16T17:25:03.934Z,16.68
2023-04-16T17:28:06.676Z,16.49
2023-04-16T17:31:11.432Z,16.34
2023-04-16T17:34:14.522Z,16.28
2023-04-16T17:37:16.927Z,16.19
2023-04-16T17:40:19.944Z,16.10
2023-04-16T17:43:22.816Z,16.04
2023-04-16T17:46:25.949Z,15.92
2023-04-16T17:49:28.646Z,15.84
2023-04-16T17:52:31.413Z,15.84
2023-04-16T17:55:34.014Z,15.81
2023-04-16T17:58:37.622Z,15.66
2023-04-16T18:01:41.042Z,15.56
2023-04-16T18:04:43.654Z,15.51
2023-04-16T18:07:47.144Z,15.34
2023-04-16T18:10:50.487Z,15.17
2023-04-16T18:13:53.986Z,15.13
2023-04-16T18:16:58.350Z,15.04
2023-04-16T18:20:01.055Z,15.10
2023-04-16T18:23:04.106Z,15.09
2023-04-16T18:26:08.432Z,15.10
2023-04-16T18:29:13.224Z,15.12
2023-04-16T18:32:16.617Z,15.05
2023-04-16T18:35:19.589Z,14.92
2023-04-16T18:38:22.639Z,14.95
2023-04-16T18:41:25.643Z,14.89
2023-04-16T18:44:28.379Z,14.94
2023-04-16T18:47:31.500Z,14.86
2023-04-16T18:50:34.184Z,14.85
2023-04-16T18:53:38.045Z,14.68
2023-04-16T18:56:41.332Z,14.61
2023-04-16T18:59:44.216Z,14.68
2023-04-16T19:02:47.235Z,14.58
2023-04-16T19:05:52.076Z,14.43
2023-04-16T19:08:54.984Z,14.62
2023-04-16T19:11:58.464Z,14.52
2023-04-16T19:15:01.670Z,14.55
2023-04-16T19:18:04.751Z,14.50
2023-04-16T19:21:07.677Z,14.52
2023-04-16T19:24:11.209Z,14.51
2023-04-16T19:27:14.015Z,14.48
2023-04-16T19:30:17.004Z,14.44
2023-04-16T19:33:23.209Z,14.44
2023-04-16T19:36:26.536Z,14.39
2023-04-16T19:39:29.327Z,14.28
2023-04-16T19:42:32.674Z,14.17
2023-04-16T19:45:36.251Z,14.24
2023-04-16T19:48:38.851Z,14.24
2023-04-16T19:51:41.559Z,14.13
2023-04-16T19:54:44.702Z,14.16
2023-04-16T19:57:48.202Z,14.12
2023-04-16T20:00:51.008Z,14.06
2023-04-16T20:03:54.680Z,14.11
2023-04-16T20:06:57.385Z,14.06
2023-04-16T20:10:00.047Z,14.13
2023-04-16T20:13:02.923Z,14.09
2023-04-16T20:16:05.953Z,14.02
2023-04-16T20:19:09.062Z,13.93
2023-04-16T20:22:15.659Z,14.14
2023-04-16T20:25:21.776Z,14.03
2023-04-16T20:28:24.324Z,14.12
2023-04-16T20:31:27.388Z,14.16
2023-04-16T20:34:29.982Z,14.09
2023-04-16T20:37:32.547Z,14.13
2023-04-16T20:40:38.062Z,14.12
2023-04-16T20:43:42.066Z,14.11
2023-04-16T20:46:49.484Z,14.01
2023-04-16T20:49:52.970Z,14.04
2023-04-16T20:52:55.937Z,14.06
2023-04-16T20:56:00.516Z,14.11
2023-04-16T20:59:03.005Z,13.98
2023-04-16T21:02:05.867Z,14.11
2023-04-16T21:05:14.596Z,14.16
2023-04-16T21:08:21.462Z,14.00
2023-04-16T21:11:23.970Z,13.93
2023-04-16T21:14:26.559Z,13.96
2023-04-16T21:17:30.010Z,14.03
2023-04-16T21:20:33.257Z,14.03
2023-04-16T21:23:36.026Z,13.95
2023-04-16T21:26:38.449Z,13.97
2023-04-16T21:29:40.829Z,13.78
2023-04-16T21:32:43.627Z,13.76
2023-04-16T21:35:51.258Z,13.79
2023-04-16T21:38:53.701Z,13.73
2023-04-16T21:41:57.055Z,13.75
2023-04-16T21:44:59.661Z,13.72
2023-04-16T21:48:02.211Z,13.60
2023-04-16T21:51:08.231Z,13.59
2023-04-16T21:54:11.877Z,13.52
2023-04-16T21:57:14.841Z,13.33
2023-04-16T22:00:18.375Z,13.49
2023-04-16T22:03:26.665Z,13.45
2023-04-16T22:06:29.244Z,13.37
2023-04-16T22:09:32.623Z,13.38
2023-04-16T22:12:37.857Z,13.40
2023-04-16T22:15:40.607Z,13.40
2023-04-16T22:18:43.167Z,13.38
2023-04-16T22:21:47.575Z,13.53
2023-04-16T22:24:50.060Z,13.47
2023-04-16T22:27:52.627Z,13.51
2023-04-16T22:30:55.013Z,13.54
2023-04-16T22:33:57.525Z,13.55
2023-04-16T22:37:01.456Z,13.52
2023-04-16T22:40:08.230Z,13.47
2023-04-16T22:43:10.919Z,13.48
2023-04-16T22:46:13.493Z,13.44
2023-04-16T22:49:16.078Z,13.42
2023-04-16T22:52:18.625Z,13.45
2023-04-16T22:55:21.185Z,13.45
2023-04-16T22:58:23.581Z,13.43
2023-04-16T23:01:26.536Z,13.44
2023-04-16T23:04:29.221Z,13.41
2023-04-16T23:07:31.803Z,13.46
2023-04-16T23:10:34.272Z,13.33
2023-04-16T23:13:37.397Z,13.45
2023-04-16T23:16:40.097Z,13.40
2023-04-16T23:19:42.565Z,13.42
2023-04-16T23:22:47.203Z,13.24
2023-04-16T23:25:53.261Z,13.28
2023-04-16T23:28:57.093Z,13.30
2023-04-16T23:31:59.693Z,13.28
2023-04-16T23:35:02.281Z,13.32
2023-04-16T23:38:04.777Z,13.34
2023-04-16T23:41:07.445Z,13.40
2023-04-16T23:44:09.968Z,13.35
2023-04-16T23:47:12.351Z,13.38
2023-04-16T23:50:15.191Z,13.33
2023-04-16T23:53:17.870Z,13.29
2023-04-16T23:56:20.430Z,13.40
2023-04-16T23:59:24.184Z,13.41
